sensor_id;sensor_type;location;lat;lon;timestamp;pressure;altitude;pressure_sealevel;temperature;humidity
11223;BME280;5668;52.012;8.724;2023-02-01T00:01:07;100279.38;;;6.36;95.01
11223;BME280;5668;52.012;8.724;2023-02-01T00:03:34;100274.34;;;6.33;94.17
11223;BME280;5668;52.012;8.724;2023-02-01T00:06:02;100280.28;;;6.35;94.31
11223;BME280;5668;52.012;8.724;2023-02-01T00:08:29;100274.19;;;6.36;94.82
11223;BME280;5668;52.012;8.724;2023-02-01T00:11:03;100268.28;;;6.34;94.89
11223;BME280;5668;52.012;8.724;2023-02-01T00:13:32;100265.88;;;6.31;94.34
11223;BME280;5668;52.012;8.724;2023-02-01T00:16:03;100270.84;;;6.34;94.76
11223;BME280;5668;52.012;8.724;2023-02-01T00:18:31;100276.03;;;6.34;94.80
11223;BME280;5668;52.012;8.724;2023-02-01T00:20:59;100277.69;;;6.35;94.00
11223;BME280;5668;52.012;8.724;2023-02-01T00:23:26;100281.88;;;6.38;94.46
11223;BME280;5668;52.012;8.724;2023-02-01T00:25:54;100275.09;;;6.35;94.33
11223;BME280;5668;52.012;8.724;2023-02-01T00:28:22;100284.66;;;6.33;94.21
11223;BME280;5668;52.012;8.724;2023-02-01T00:30:56;100281.19;;;6.34;93.98
11223;BME280;5668;52.012;8.724;2023-02-01T00:33:24;100293.16;;;6.35;94.78
11223;BME280;5668;52.012;8.724;2023-02-01T00:35:51;100282.94;;;6.34;94.40
11223;BME280;5668;52.012;8.724;2023-02-01T00:38:22;100288.16;;;6.32;94.75
11223;BME280;5668;52.012;8.724;2023-02-01T00:40:53;100279.50;;;6.33;94.20
11223;BME280;5668;52.012;8.724;2023-02-01T00:43:22;100269.03;;;6.36;94.61
11223;BME280;5668;52.012;8.724;2023-02-01T00:45:49;100269.03;;;6.36;93.85
11223;BME280;5668;52.012;8.724;2023-02-01T00:48:16;100256.22;;;6.35;94.53
11223;BME280;5668;52.012;8.724;2023-02-01T00:50:43;100263.31;;;6.31;93.83
11223;BME280;5668;52.012;8.724;2023-02-01T00:53:11;100263.31;;;6.31;93.72
11223;BME280;5668;52.012;8.724;2023-02-01T00:55:38;100258.03;;;6.33;94.61
11223;BME280;5668;52.012;8.724;2023-02-01T00:58:05;100260.59;;;6.33;93.99
11223;BME280;5668;52.012;8.724;2023-02-01T01:00:36;100252.38;;;6.26;93.42
11223;BME280;5668;52.012;8.724;2023-02-01T01:03:04;100256.63;;;6.27;94.51
11223;BME280;5668;52.012;8.724;2023-02-01T01:05:43;100262.88;;;6.23;94.06
11223;BME280;5668;52.012;8.724;2023-02-01T01:08:11;100258.63;;;6.22;94.71
11223;BME280;5668;52.012;8.724;2023-02-01T01:10:38;100252.63;;;6.21;94.36
11223;BME280;5668;52.012;8.724;2023-02-01T01:13:06;100250.88;;;6.22;94.10
11223;BME280;5668;52.012;8.724;2023-02-01T01:15:37;100244.03;;;6.21;94.41
11223;BME280;5668;52.012;8.724;2023-02-01T01:18:05;100251.03;;;6.19;94.17
11223;BME280;5668;52.012;8.724;2023-02-01T01:20:35;100245.03;;;6.18;93.90
11223;BME280;5668;52.012;8.724;2023-02-01T01:23:03;100250.13;;;6.20;94.32
11223;BME280;5668;52.012;8.724;2023-02-01T01:25:31;100245.88;;;6.19;94.75
11223;BME280;5668;52.012;8.724;2023-02-01T01:27:59;100241.38;;;6.22;94.64
11223;BME280;5668;52.012;8.724;2023-02-01T01:30:26;100236.22;;;6.22;94.32
11223;BME280;5668;52.012;8.724;2023-02-01T01:32:54;100233.72;;;6.21;94.25
11223;BME280;5668;52.012;8.724;2023-02-01T01:35:22;100234.56;;;6.21;95.47
11223;BME280;5668;52.012;8.724;2023-02-01T01:37:49;100236.22;;;6.22;95.10
11223;BME280;5668;52.012;8.724;2023-02-01T01:40:17;100237.97;;;6.22;95.19
11223;BME280;5668;52.012;8.724;2023-02-01T01:42:45;100238.69;;;6.24;94.88
11223;BME280;5668;52.012;8.724;2023-02-01T01:45:22;100230.31;;;6.20;95.53
11223;BME280;5668;52.012;8.724;2023-02-01T01:47:54;100234.72;;;6.18;94.95
11223;BME280;5668;52.012;8.724;2023-02-01T01:50:25;100237.06;;;6.23;95.64
11223;BME280;5668;52.012;8.724;2023-02-01T01:52:55;100224.25;;;6.21;95.03
11223;BME280;5668;52.012;8.724;2023-02-01T01:55:26;100228.38;;;6.24;95.19
11223;BME280;5668;52.012;8.724;2023-02-01T01:57:57;100215.59;;;6.22;95.80
11223;BME280;5668;52.012;8.724;2023-02-01T02:00:26;100228.56;;;6.21;95.71
11223;BME280;5668;52.012;8.724;2023-02-01T02:02:58;100219.72;;;6.25;95.56
11223;BME280;5668;52.012;8.724;2023-02-01T02:05:26;100218.25;;;6.21;95.36
11223;BME280;5668;52.012;8.724;2023-02-01T02:07:58;100203.41;;;6.25;95.93
11223;BME280;5668;52.012;8.724;2023-02-01T02:10:27;100195.59;;;6.26;96.04
11223;BME280;5668;52.012;8.724;2023-02-01T02:13:15;100196.44;;;6.27;95.05
11223;BME280;5668;52.012;8.724;2023-02-01T02:15:47;100195.59;;;6.26;95.56
11223;BME280;5668;52.012;8.724;2023-02-01T02:18:22;100193.78;;;6.28;95.75
11223;BME280;5668;52.012;8.724;2023-02-01T02:21:12;100190.44;;;6.26;94.99
11223;BME280;5668;52.012;8.724;2023-02-01T02:26:49;100177.53;;;6.26;95.25
11223;BME280;5668;52.012;8.724;2023-02-01T02:32:45;100179.97;;;6.29;95.27
11223;BME280;5668;52.012;8.724;2023-02-01T02:35:24;100159.31;;;6.29;95.36
11223;BME280;5668;52.012;8.724;2023-02-01T02:37:57;100162.66;;;6.31;95.55
11223;BME280;5668;52.012;8.724;2023-02-01T02:40:32;100156.66;;;6.31;95.22
11223;BME280;5668;52.012;8.724;2023-02-01T02:43:07;100155.63;;;6.33;95.92
11223;BME280;5668;52.012;8.724;2023-02-01T02:45:55;100149.66;;;6.33;95.40
11223;BME280;5668;52.012;8.724;2023-02-01T02:49:01;100146.34;;;6.31;95.47
11223;BME280;5668;52.012;8.724;2023-02-01T02:51:35;100153.06;;;6.33;95.28
11223;BME280;5668;52.012;8.724;2023-02-01T02:54:24;100147.81;;;6.35;95.25
11223;BME280;5668;52.012;8.724;2023-02-01T02:57:13;100135.00;;;6.33;94.92
11223;BME280;5668;52.012;8.724;2023-02-01T03:00:01;100144.41;;;6.34;95.28
11223;BME280;5668;52.012;8.724;2023-02-01T03:02:47;100133.00;;;6.38;94.91
11223;BME280;5668;52.012;8.724;2023-02-01T03:05:34;100128.00;;;6.35;94.70
11223;BME280;5668;52.012;8.724;2023-02-01T03:08:08;100116.78;;;6.36;95.09
11223;BME280;5668;52.012;8.724;2023-02-01T03:10:42;100120.13;;;6.38;94.79
11223;BME280;5668;52.012;8.724;2023-02-01T03:13:13;100122.69;;;6.38;94.50
11223;BME280;5668;52.012;8.724;2023-02-01T03:15:45;100124.34;;;6.39;94.36
11223;BME280;5668;52.012;8.724;2023-02-01T03:18:20;100122.59;;;6.40;94.25
11223;BME280;5668;52.012;8.724;2023-02-01T03:20:53;100124.34;;;6.39;93.44
11223;BME280;5668;52.012;8.724;2023-02-01T03:23:26;100122.50;;;6.41;93.56
11223;BME280;5668;52.012;8.724;2023-02-01T03:25:55;100118.38;;;6.39;93.30
11223;BME280;5668;52.012;8.724;2023-02-01T03:28:24;100114.00;;;6.39;93.06
11223;BME280;5668;52.012;8.724;2023-02-01T03:30:52;100104.44;;;6.41;93.83
11223;BME280;5668;52.012;8.724;2023-02-01T03:33:23;100109.53;;;6.43;93.54
11223;BME280;5668;52.012;8.724;2023-02-01T03:35:59;100111.19;;;6.44;92.54
11223;BME280;5668;52.012;8.724;2023-02-01T03:38:32;100097.38;;;6.45;92.95
11223;BME280;5668;52.012;8.724;2023-02-01T03:41:08;100091.09;;;6.49;92.86
11223;BME280;5668;52.012;8.724;2023-02-01T03:43:42;100073.22;;;6.46;92.41
11223;BME280;5668;52.012;8.724;2023-02-01T03:46:20;100073.13;;;6.47;92.83
11223;BME280;5668;52.012;8.724;2023-02-01T03:48:50;100071.47;;;6.46;92.46
11223;BME280;5668;52.012;8.724;2023-02-01T03:51:20;100082.72;;;6.45;92.06
11223;BME280;5668;52.012;8.724;2023-02-01T03:53:50;100074.97;;;6.45;91.83
11223;BME280;5668;52.012;8.724;2023-02-01T03:56:22;100077.56;;;6.45;92.53
11223;BME280;5668;52.012;8.724;2023-02-01T03:58:51;100080.13;;;6.45;91.84
11223;BME280;5668;52.012;8.724;2023-02-01T04:01:27;100079.22;;;6.46;92.30
11223;BME280;5668;52.012;8.724;2023-02-01T04:03:54;100072.41;;;6.45;92.07
11223;BME280;5668;52.012;8.724;2023-02-01T04:06:22;100084.19;;;6.49;91.30
11223;BME280;5668;52.012;8.724;2023-02-01T04:08:51;100076.09;;;6.55;91.91
11223;BME280;5668;52.012;8.724;2023-02-01T04:11:18;100074.63;;;6.51;92.03
11223;BME280;5668;52.012;8.724;2023-02-01T04:13:45;100069.25;;;6.54;91.74
11223;BME280;5668;52.012;8.724;2023-02-01T04:16:13;100054.53;;;6.56;91.42
11223;BME280;5668;52.012;8.724;2023-02-01T04:18:40;100047.69;;;6.55;91.32
11223;BME280;5668;52.012;8.724;2023-02-01T04:21:07;100061.34;;;6.57;91.46
11223;BME280;5668;52.012;8.724;2023-02-01T04:23:34;100041.69;;;6.55;91.51
11223;BME280;5668;52.012;8.724;2023-02-01T04:26:04;100050.41;;;6.54;91.87
11223;BME280;5668;52.012;8.724;2023-02-01T04:28:32;100054.72;;;6.53;92.25
11223;BME280;5668;52.012;8.724;2023-02-01T04:30:59;100055.44;;;6.55;92.11
11223;BME280;5668;52.012;8.724;2023-02-01T04:33:26;100055.56;;;6.54;91.96
11223;BME280;5668;52.012;8.724;2023-02-01T04:35:53;100053.06;;;6.52;91.56
11223;BME280;5668;52.012;8.724;2023-02-01T04:38:20;100041.91;;;6.52;92.44
11223;BME280;5668;52.012;8.724;2023-02-01T04:40:48;100032.41;;;6.52;92.58
11223;BME280;5668;52.012;8.724;2023-02-01T04:43:18;100040.88;;;6.54;93.05
11223;BME280;5668;52.012;8.724;2023-02-01T04:45:49;100035.81;;;6.53;92.68
11223;BME280;5668;52.012;8.724;2023-02-01T04:48:17;100028.91;;;6.53;92.03
11223;BME280;5668;52.012;8.724;2023-02-01T04:50:45;100033.97;;;6.55;92.17
11223;BME280;5668;52.012;8.724;2023-02-01T04:53:13;100039.03;;;6.56;92.55
11223;BME280;5668;52.012;8.724;2023-02-01T04:55:41;100034.91;;;6.54;92.85
11223;BME280;5668;52.012;8.724;2023-02-01T04:58:09;100040.88;;;6.54;93.30
11223;BME280;5668;52.012;8.724;2023-02-01T05:00:38;100034.91;;;6.54;93.82
11223;BME280;5668;52.012;8.724;2023-02-01T05:03:05;100031.66;;;6.50;94.02
11223;BME280;5668;52.012;8.724;2023-02-01T05:05:33;100020.34;;;6.53;94.37
11223;BME280;5668;52.012;8.724;2023-02-01T05:08:00;100028.91;;;6.53;94.77
11223;BME280;5668;52.012;8.724;2023-02-01T05:10:27;100025.38;;;6.54;96.04
11223;BME280;5668;52.012;8.724;2023-02-01T05:12:54;100028.06;;;6.53;96.06
11223;BME280;5668;52.012;8.724;2023-02-01T05:15:40;100023.75;;;6.53;96.52
11223;BME280;5668;52.012;8.724;2023-02-01T05:18:07;100019.50;;;6.52;96.00
11223;BME280;5668;52.012;8.724;2023-02-01T05:20:35;100019.41;;;6.54;96.82
11223;BME280;5668;52.012;8.724;2023-02-01T05:23:02;100021.34;;;6.50;96.71
11223;BME280;5668;52.012;8.724;2023-02-01T05:25:29;100029.91;;;6.51;96.64
11223;BME280;5668;52.012;8.724;2023-02-01T05:27:56;100013.03;;;6.45;97.45
11223;BME280;5668;52.012;8.724;2023-02-01T05:30:23;100013.94;;;6.44;96.66
11223;BME280;5668;52.012;8.724;2023-02-01T05:32:52;99995.78;;;6.46;97.54
11223;BME280;5668;52.012;8.724;2023-02-01T05:35:20;99999.47;;;6.42;97.34
11223;BME280;5668;52.012;8.724;2023-02-01T05:37:47;99993.47;;;6.41;97.83
11223;BME280;5668;52.012;8.724;2023-02-01T05:40:15;99989.81;;;6.45;97.88
11223;BME280;5668;52.012;8.724;2023-02-01T05:42:43;99992.09;;;6.50;97.37
11223;BME280;5668;52.012;8.724;2023-02-01T05:45:10;99986.03;;;6.51;98.02
11223;BME280;5668;52.012;8.724;2023-02-01T05:47:37;99997.25;;;6.50;97.39
11223;BME280;5668;52.012;8.724;2023-02-01T05:50:08;99980.88;;;6.51;97.66
11223;BME280;5668;52.012;8.724;2023-02-01T05:52:36;99974.94;;;6.49;98.17
11223;BME280;5668;52.012;8.724;2023-02-01T05:55:04;99980.13;;;6.49;97.89
11223;BME280;5668;52.012;8.724;2023-02-01T05:57:32;99979.47;;;6.45;98.04
11223;BME280;5668;52.012;8.724;2023-02-01T05:59:59;99981.78;;;6.50;97.66
11223;BME280;5668;52.012;8.724;2023-02-01T06:02:26;99970.91;;;6.45;97.31
11223;BME280;5668;52.012;8.724;2023-02-01T06:04:53;99975.16;;;6.46;97.98
11223;BME280;5668;52.012;8.724;2023-02-01T06:07:22;99986.31;;;6.46;97.51
11223;BME280;5668;52.012;8.724;2023-02-01T06:09:49;99983.81;;;6.45;96.98
11223;BME280;5668;52.012;8.724;2023-02-01T06:12:16;99975.97;;;6.46;97.19
11223;BME280;5668;52.012;8.724;2023-02-01T06:14:44;99985.56;;;6.44;96.89
11223;BME280;5668;52.012;8.724;2023-02-01T06:17:11;99968.25;;;6.46;97.30
11223;BME280;5668;52.012;8.724;2023-02-01T06:19:38;99977.28;;;6.53;97.15
11223;BME280;5668;52.012;8.724;2023-02-01T06:22:06;99966.00;;;6.54;96.85
11223;BME280;5668;52.012;8.724;2023-02-01T06:24:35;99973.22;;;6.49;96.86
11223;BME280;5668;52.012;8.724;2023-02-01T06:27:02;99967.28;;;6.47;96.99
11223;BME280;5668;52.012;8.724;2023-02-01T06:29:29;99970.81;;;6.46;96.41
11223;BME280;5668;52.012;8.724;2023-02-01T06:31:56;99978.28;;;6.51;96.50
11223;BME280;5668;52.012;8.724;2023-02-01T06:34:23;99976.63;;;6.50;96.70
11223;BME280;5668;52.012;8.724;2023-02-01T06:36:51;99992.94;;;6.50;96.23
11223;BME280;5668;52.012;8.724;2023-02-01T06:39:18;99992.56;;;6.56;96.22
11223;BME280;5668;52.012;8.724;2023-02-01T06:41:48;99994.31;;;6.56;96.47
11223;BME280;5668;52.012;8.724;2023-02-01T06:44:16;99993.59;;;6.54;95.46
11223;BME280;5668;52.012;8.724;2023-02-01T06:46:43;100005.56;;;6.55;95.94
11223;BME280;5668;52.012;8.724;2023-02-01T06:49:10;100006.41;;;6.55;96.01
11223;BME280;5668;52.012;8.724;2023-02-01T06:51:37;100008.97;;;6.55;96.02
11223;BME280;5668;52.012;8.724;2023-02-01T06:54:05;100014.88;;;6.57;95.99
11223;BME280;5668;52.012;8.724;2023-02-01T06:56:32;100026.31;;;6.53;96.13
11223;BME280;5668;52.012;8.724;2023-02-01T06:59:03;100025.22;;;6.57;95.53
11223;BME280;5668;52.012;8.724;2023-02-01T07:01:31;100027.72;;;6.59;96.36
11223;BME280;5668;52.012;8.724;2023-02-01T07:03:58;100022.56;;;6.59;96.05
11223;BME280;5668;52.012;8.724;2023-02-01T07:06:25;100034.72;;;6.57;95.41
11223;BME280;5668;52.012;8.724;2023-02-01T07:08:52;100036.28;;;6.59;95.65
11223;BME280;5668;52.012;8.724;2023-02-01T07:11:22;100032.78;;;6.60;96.00
11223;BME280;5668;52.012;8.724;2023-02-01T07:13:50;100040.25;;;6.65;96.08
11223;BME280;5668;52.012;8.724;2023-02-01T07:16:19;100044.50;;;6.66;95.98
11223;BME280;5668;52.012;8.724;2023-02-01T07:18:47;100036.84;;;6.65;96.11
11223;BME280;5668;52.012;8.724;2023-02-01T07:21:14;100041.00;;;6.67;95.40
11223;BME280;5668;52.012;8.724;2023-02-01T07:23:41;100046.34;;;6.64;95.55
11223;BME280;5668;52.012;8.724;2023-02-01T07:26:11;100049.84;;;6.63;96.18
11223;BME280;5668;52.012;8.724;2023-02-01T07:28:39;100043.00;;;6.62;96.08
11223;BME280;5668;52.012;8.724;2023-02-01T07:31:08;100045.50;;;6.64;95.84
11223;BME280;5668;52.012;8.724;2023-02-01T07:33:37;100043.69;;;6.66;96.20
11223;BME280;5668;52.012;8.724;2023-02-01T07:36:06;100047.34;;;6.61;95.34
11223;BME280;5668;52.012;8.724;2023-02-01T07:38:33;100053.25;;;6.64;95.33
11223;BME280;5668;52.012;8.724;2023-02-01T07:41:04;100069.50;;;6.66;95.38
11223;BME280;5668;52.012;8.724;2023-02-01T07:43:32;100066.16;;;6.64;95.79
11223;BME280;5668;52.012;8.724;2023-02-01T07:46:00;100072.06;;;6.66;95.30
11223;BME280;5668;52.012;8.724;2023-02-01T07:48:28;100075.56;;;6.65;95.69
11223;BME280;5668;52.012;8.724;2023-02-01T07:51:01;100070.13;;;6.69;94.98
11223;BME280;5668;52.012;8.724;2023-02-01T07:53:30;100071.16;;;6.67;95.16
11223;BME280;5668;52.012;8.724;2023-02-01T07:55:58;100081.50;;;6.67;95.35
11223;BME280;5668;52.012;8.724;2023-02-01T07:58:26;100074.50;;;6.69;94.94
11223;BME280;5668;52.012;8.724;2023-02-01T08:00:54;100083.88;;;6.70;94.95
11223;BME280;5668;52.012;8.724;2023-02-01T08:03:39;100076.88;;;6.72;95.24
11223;BME280;5668;52.012;8.724;2023-02-01T08:06:08;100072.47;;;6.74;94.41
11223;BME280;5668;52.012;8.724;2023-02-01T08:08:35;100087.13;;;6.73;94.97
11223;BME280;5668;52.012;8.724;2023-02-01T08:11:04;100074.97;;;6.75;95.38
11223;BME280;5668;52.012;8.724;2023-02-01T08:13:33;100077.34;;;6.78;94.48
11223;BME280;5668;52.012;8.724;2023-02-01T08:16:02;100082.44;;;6.80;94.82
11223;BME280;5668;52.012;8.724;2023-02-01T08:18:29;100090.25;;;6.78;95.43
11223;BME280;5668;52.012;8.724;2023-02-01T08:20:57;100084.25;;;6.78;95.14
11223;BME280;5668;52.012;8.724;2023-02-01T08:23:25;100079.94;;;6.78;94.70
11223;BME280;5668;52.012;8.724;2023-02-01T08:25:52;100087.59;;;6.80;94.69
11223;BME280;5668;52.012;8.724;2023-02-01T08:28:20;100091.78;;;6.82;94.82
11223;BME280;5668;52.012;8.724;2023-02-01T08:30:48;100089.09;;;6.84;95.65
11223;BME280;5668;52.012;8.724;2023-02-01T08:33:15;100097.09;;;6.79;95.31
11223;BME280;5668;52.012;8.724;2023-02-01T08:35:42;100092.75;;;6.80;95.49
11223;BME280;5668;52.012;8.724;2023-02-01T08:38:09;100095.91;;;6.85;95.50
11223;BME280;5668;52.012;8.724;2023-02-01T08:40:38;100077.09;;;6.83;95.87
11223;BME280;5668;52.012;8.724;2023-02-01T08:43:07;100087.44;;;6.83;96.12
11223;BME280;5668;52.012;8.724;2023-02-01T08:45:34;100082.06;;;6.86;96.08
11223;BME280;5668;52.012;8.724;2023-02-01T08:48:01;100081.91;;;6.89;95.24
11223;BME280;5668;52.012;8.724;2023-02-01T08:50:29;100074.16;;;6.89;95.19
11223;BME280;5668;52.012;8.724;2023-02-01T08:52:56;100079.31;;;6.89;95.97
11223;BME280;5668;52.012;8.724;2023-02-01T08:55:23;100065.75;;;6.85;95.31
11223;BME280;5668;52.012;8.724;2023-02-01T08:57:52;100084.66;;;6.86;95.93
11223;BME280;5668;52.012;8.724;2023-02-01T09:00:19;100087.63;;;6.94;95.00
11223;BME280;5668;52.012;8.724;2023-02-01T09:02:46;100086.72;;;6.95;95.95
11223;BME280;5668;52.012;8.724;2023-02-01T09:05:14;100097.59;;;7.00;95.77
11223;BME280;5668;52.012;8.724;2023-02-01T09:07:42;100082.00;;;7.02;94.82
11223;BME280;5668;52.012;8.724;2023-02-01T09:10:11;100076.84;;;7.02;95.10
11223;BME280;5668;52.012;8.724;2023-02-01T09:12:39;100088.94;;;7.01;94.65
11223;BME280;5668;52.012;8.724;2023-02-01T09:15:08;100094.19;;;6.99;94.96
11223;BME280;5668;52.012;8.724;2023-02-01T09:17:36;100095.69;;;7.04;94.38
11223;BME280;5668;52.012;8.724;2023-02-01T09:20:06;100069.19;;;7.00;95.23
11223;BME280;5668;52.012;8.724;2023-02-01T09:22:40;100076.84;;;7.02;94.71
11223;BME280;5668;52.012;8.724;2023-02-01T09:25:08;100080.09;;;7.05;94.16
11223;BME280;5668;52.012;8.724;2023-02-01T09:27:35;100074.63;;;7.10;94.36
11223;BME280;5668;52.012;8.724;2023-02-01T09:30:04;100074.72;;;7.08;94.19
11223;BME280;5668;52.012;8.724;2023-02-01T09:32:32;100069.47;;;7.10;94.34
11223;BME280;5668;52.012;8.724;2023-02-01T09:35:00;100083.06;;;7.13;93.35
11223;BME280;5668;52.012;8.724;2023-02-01T09:37:30;100094.94;;;7.16;93.92
11223;BME280;5668;52.012;8.724;2023-02-01T09:39:58;100083.78;;;7.15;94.10
11223;BME280;5668;52.012;8.724;2023-02-01T09:42:47;100075.69;;;7.21;92.47
11223;BME280;5668;52.012;8.724;2023-02-01T09:45:21;100085.28;;;7.19;93.32
11223;BME280;5668;52.012;8.724;2023-02-01T09:47:55;100065.50;;;7.18;92.22
11223;BME280;5668;52.012;8.724;2023-02-01T09:50:30;100068.84;;;7.20;92.20
11223;BME280;5668;52.012;8.724;2023-02-01T09:53:02;100072.16;;;7.22;92.79
11223;BME280;5668;52.012;8.724;2023-02-01T09:55:38;100078.06;;;7.24;92.00
11223;BME280;5668;52.012;8.724;2023-02-01T09:58:11;100085.72;;;7.26;91.76
11223;BME280;5668;52.012;8.724;2023-02-01T10:00:47;100095.06;;;7.28;91.67
11223;BME280;5668;52.012;8.724;2023-02-01T10:03:18;100083.91;;;7.28;92.27
11223;BME280;5668;52.012;8.724;2023-02-01T10:06:01;100069.22;;;7.28;92.42
11223;BME280;5668;52.012;8.724;2023-02-01T10:08:37;100085.72;;;7.26;91.38
11223;BME280;5668;52.012;8.724;2023-02-01T10:11:16;100080.47;;;7.27;92.17
11223;BME280;5668;52.012;8.724;2023-02-01T10:13:54;100088.03;;;7.30;91.74
11223;BME280;5668;52.012;8.724;2023-02-01T10:16:35;100075.22;;;7.29;91.79
11223;BME280;5668;52.012;8.724;2023-02-01T10:19:29;100074.09;;;7.33;92.01
11223;BME280;5668;52.012;8.724;2023-02-01T10:22:00;100065.34;;;7.35;92.00
11223;BME280;5668;52.012;8.724;2023-02-01T10:24:42;100053.97;;;7.38;91.52
11223;BME280;5668;52.012;8.724;2023-02-01T10:27:17;100053.88;;;7.39;91.79
11223;BME280;5668;52.012;8.724;2023-02-01T10:29:49;100052.03;;;7.42;91.38
11223;BME280;5668;52.012;8.724;2023-02-01T10:32:22;100060.06;;;7.37;91.68
11223;BME280;5668;52.012;8.724;2023-02-01T10:34:55;100058.13;;;7.41;91.45
11223;BME280;5668;52.012;8.724;2023-02-01T10:37:34;100054.63;;;7.42;91.02
11223;BME280;5668;52.012;8.724;2023-02-01T10:40:09;100049.38;;;7.43;90.93
11223;BME280;5668;52.012;8.724;2023-02-01T10:42:38;100047.41;;;7.47;91.13
11223;BME280;5668;52.012;8.724;2023-02-01T10:45:11;100045.75;;;7.46;90.59
11223;BME280;5668;52.012;8.724;2023-02-01T10:47:40;100054.41;;;7.45;90.80
11223;BME280;5668;52.012;8.724;2023-02-01T10:50:19;100055.25;;;7.45;91.59
11223;BME280;5668;52.012;8.724;2023-02-01T10:52:53;100059.59;;;7.45;91.27
11223;BME280;5668;52.012;8.724;2023-02-01T10:55:34;100054.41;;;7.45;90.72
11223;BME280;5668;52.012;8.724;2023-02-01T10:58:03;100057.00;;;7.45;90.93
11223;BME280;5668;52.012;8.724;2023-02-01T11:00:45;100051.75;;;7.46;90.59
11223;BME280;5668;52.012;8.724;2023-02-01T11:06:26;100044.91;;;7.45;91.94
11223;BME280;5668;52.012;8.724;2023-02-01T11:08:55;100037.91;;;7.47;91.47
11223;BME280;5668;52.012;8.724;2023-02-01T11:11:23;100030.06;;;7.49;91.74
11223;BME280;5668;52.012;8.724;2023-02-01T11:13:56;100029.03;;;7.51;91.07
11223;BME280;5668;52.012;8.724;2023-02-01T11:16:30;100016.84;;;7.53;91.77
11223;BME280;5668;52.012;8.724;2023-02-01T11:18:59;100012.69;;;7.51;91.69
11223;BME280;5668;52.012;8.724;2023-02-01T11:21:28;100001.97;;;7.57;92.11
11223;BME280;5668;52.012;8.724;2023-02-01T11:23:56;100007.16;;;7.57;91.65
11223;BME280;5668;52.012;8.724;2023-02-01T11:26:27;100002.81;;;7.57;90.97
11223;BME280;5668;52.012;8.724;2023-02-01T11:29:03;99979.44;;;7.59;91.40
11223;BME280;5668;52.012;8.724;2023-02-01T11:31:50;99985.63;;;7.56;91.50
11223;BME280;5668;52.012;8.724;2023-02-01T11:34:25;99974.63;;;7.53;90.53
11223;BME280;5668;52.012;8.724;2023-02-01T11:37:02;99971.97;;;7.54;90.63
11223;BME280;5668;52.012;8.724;2023-02-01T11:39:31;99976.22;;;7.55;90.98
11223;BME280;5668;52.012;8.724;2023-02-01T11:42:03;99969.47;;;7.53;90.73
11223;BME280;5668;52.012;8.724;2023-02-01T11:44:36;99953.78;;;7.56;90.63
11223;BME280;5668;52.012;8.724;2023-02-01T11:47:21;99956.53;;;7.53;90.40
11223;BME280;5668;52.012;8.724;2023-02-01T11:49:50;99940.31;;;7.51;90.61
11223;BME280;5668;52.012;8.724;2023-02-01T11:52:31;99938.34;;;7.54;89.60
11223;BME280;5668;52.012;8.724;2023-02-01T11:55:17;99955.63;;;7.54;91.23
11223;BME280;5668;52.012;8.724;2023-02-01T11:57:58;99940.84;;;7.56;90.58
11223;BME280;5668;52.012;8.724;2023-02-01T12:00:44;99933.00;;;7.57;91.35
11223;BME280;5668;52.012;8.724;2023-02-01T12:03:39;99931.41;;;7.55;91.92
11223;BME280;5668;52.012;8.724;2023-02-01T12:06:17;99929.97;;;7.51;92.72
11223;BME280;5668;52.012;8.724;2023-02-01T12:09:09;99924.59;;;7.54;92.32
11223;BME280;5668;52.012;8.724;2023-02-01T12:11:50;99923.97;;;7.50;93.43
11223;BME280;5668;52.012;8.724;2023-02-01T12:14:33;99925.91;;;7.47;93.84
11223;BME280;5668;52.012;8.724;2023-02-01T12:17:30;99949.47;;;7.42;93.17
11223;BME280;5668;52.012;8.724;2023-02-01T12:20:17;99935.06;;;7.38;95.34
11223;BME280;5668;52.012;8.724;2023-02-01T12:22:56;99943.84;;;7.35;94.79
11223;BME280;5668;52.012;8.724;2023-02-01T12:25:39;99935.66;;;7.29;95.92
11223;BME280;5668;52.012;8.724;2023-02-01T12:28:32;99910.81;;;7.26;96.21
11223;BME280;5668;52.012;8.724;2023-02-01T12:31:25;99910.09;;;7.24;95.95
11223;BME280;5668;52.012;8.724;2023-02-01T12:34:07;99896.34;;;7.24;96.33
11223;BME280;5668;52.012;8.724;2023-02-01T12:36:46;99885.16;;;7.23;96.85
11223;BME280;5668;52.012;8.724;2023-02-01T12:39:22;99880.91;;;7.22;96.53
11223;BME280;5668;52.012;8.724;2023-02-01T12:41:56;99892.22;;;7.21;97.69
11223;BME280;5668;52.012;8.724;2023-02-01T12:44:32;99883.50;;;7.22;97.88
11223;BME280;5668;52.012;8.724;2023-02-01T12:47:06;99877.41;;;7.23;97.94
11223;BME280;5668;52.012;8.724;2023-02-01T12:49:44;99887.97;;;7.20;98.27
11223;BME280;5668;52.012;8.724;2023-02-01T12:52:16;99881.88;;;7.21;98.74
11223;BME280;5668;52.012;8.724;2023-02-01T12:54:48;99888.50;;;7.25;98.15
11223;BME280;5668;52.012;8.724;2023-02-01T12:57:23;99890.53;;;7.20;99.06
11223;BME280;5668;52.012;8.724;2023-02-01T12:59:56;99878.63;;;7.18;99.16
11223;BME280;5668;52.012;8.724;2023-02-01T13:02:35;99877.06;;;7.15;99.62
11223;BME280;5668;52.012;8.724;2023-02-01T13:05:14;99861.94;;;7.09;100.00
11223;BME280;5668;52.012;8.724;2023-02-01T13:07:47;99860.28;;;7.08;99.91
11223;BME280;5668;52.012;8.724;2023-02-01T13:10:22;99860.28;;;7.08;100.00
11223;BME280;5668;52.012;8.724;2023-02-01T13:12:56;99856.78;;;7.09;100.00
11223;BME280;5668;52.012;8.724;2023-02-01T13:15:29;99855.50;;;7.02;100.00
11223;BME280;5668;52.012;8.724;2023-02-01T13:18:00;99856.53;;;6.99;100.00
11223;BME280;5668;52.012;8.724;2023-02-01T13:20:31;99851.25;;;7.01;100.00
11223;BME280;5668;52.012;8.724;2023-02-01T13:23:02;99847.69;;;7.04;100.00
11223;BME280;5668;52.012;8.724;2023-02-01T13:25:35;99837.34;;;7.04;100.00
11223;BME280;5668;52.012;8.724;2023-02-01T13:28:10;99841.69;;;7.03;100.00
11223;BME280;5668;52.012;8.724;2023-02-01T13:33:44;99841.75;;;7.02;100.00
11223;BME280;5668;52.012;8.724;2023-02-01T13:36:40;99840.00;;;7.02;100.00
11223;BME280;5668;52.012;8.724;2023-02-01T13:42:15;99852.19;;;7.00;100.00
11223;BME280;5668;52.012;8.724;2023-02-01T13:44:46;99852.94;;;7.02;100.00
11223;BME280;5668;52.012;8.724;2023-02-01T13:47:22;99839.00;;;7.05;100.00
11223;BME280;5668;52.012;8.724;2023-02-01T13:49:52;99833.00;;;7.04;100.00
11223;BME280;5668;52.012;8.724;2023-02-01T13:52:27;99841.28;;;7.09;100.00